sensor_id;sensor_type;location;lat;lon;timestamp;P1;durP1;ratioP1;P2;durP2;ratioP2
24631;SDS011;59977;48.782;9.190;2024-01-06T00:01:31;8.52;;;2.22;;
24631;SDS011;59977;48.782;9.190;2024-01-06T00:03:56;7.63;;;1.95;;
24631;SDS011;59977;48.782;9.190;2024-01-06T00:06:22;8.27;;;2.20;;
24631;SDS011;59977;48.782;9.190;2024-01-06T00:08:48;5.15;;;1.65;;
24631;SDS011;59977;48.782;9.190;2024-01-06T00:11:19;4.88;;;1.95;;
24631;SDS011;59977;48.782;9.190;2024-01-06T00:13:47;7.60;;;2.10;;
24631;SDS011;59977;48.782;9.190;2024-01-06T00:16:16;6.15;;;1.90;;
24631;SDS011;59977;48.782;9.190;2024-01-06T00:18:43;6.40;;;2.55;;
24631;SDS011;59977;48.782;9.190;2024-01-06T00:21:09;6.28;;;1.83;;
24631;SDS011;59977;48.782;9.190;2024-01-06T00:23:34;5.65;;;1.67;;
24631;SDS011;59977;48.782;9.190;2024-01-06T00:26:00;9.05;;;2.40;;
24631;SDS011;59977;48.782;9.190;2024-01-06T00:28:31;10.10;;;1.85;;
24631;SDS011;59977;48.782;9.190;2024-01-06T00:30:57;8.30;;;2.00;;
24631;SDS011;59977;48.782;9.190;2024-01-06T00:33:23;9.05;;;1.95;;
24631;SDS011;59977;48.782;9.190;2024-01-06T00:35:48;6.07;;;1.77;;
24631;SDS011;59977;48.782;9.190;2024-01-06T00:38:14;7.90;;;2.10;;
24631;SDS011;59977;48.782;9.190;2024-01-06T00:40:41;6.38;;;1.85;;
24631;SDS011;59977;48.782;9.190;2024-01-06T00:43:06;4.85;;;1.60;;
24631;SDS011;59977;48.782;9.190;2024-01-06T00:45:32;8.65;;;2.13;;
24631;SDS011;59977;48.782;9.190;2024-01-06T00:47:57;4.30;;;1.60;;
24631;SDS011;59977;48.782;9.190;2024-01-06T00:50:23;4.97;;;2.00;;
24631;SDS011;59977;48.782;9.190;2024-01-06T00:52:49;5.28;;;1.45;;
24631;SDS011;59977;48.782;9.190;2024-01-06T00:55:20;6.32;;;1.90;;
24631;SDS011;59977;48.782;9.190;2024-01-06T00:57:46;7.78;;;1.90;;
24631;SDS011;59977;48.782;9.190;2024-01-06T01:00:12;11.30;;;1.95;;
24631;SDS011;59977;48.782;9.190;2024-01-06T01:02:38;7.25;;;1.80;;
24631;SDS011;59977;48.782;9.190;2024-01-06T01:05:04;10.30;;;2.05;;
24631;SDS011;59977;48.782;9.190;2024-01-06T01:07:32;10.13;;;1.60;;
24631;SDS011;59977;48.782;9.190;2024-01-06T01:09:58;6.50;;;2.13;;
24631;SDS011;59977;48.782;9.190;2024-01-06T01:12:23;4.75;;;1.42;;
24631;SDS011;59977;48.782;9.190;2024-01-06T01:14:49;6.35;;;1.75;;
24631;SDS011;59977;48.782;9.190;2024-01-06T01:17:15;6.85;;;2.03;;
24631;SDS011;59977;48.782;9.190;2024-01-06T01:19:41;7.30;;;1.60;;
24631;SDS011;59977;48.782;9.190;2024-01-06T01:22:07;10.32;;;1.95;;
24631;SDS011;59977;48.782;9.190;2024-01-06T01:24:32;8.10;;;2.45;;
24631;SDS011;59977;48.782;9.190;2024-01-06T01:26:58;8.98;;;1.70;;
24631;SDS011;59977;48.782;9.190;2024-01-06T01:29:24;6.65;;;2.40;;
24631;SDS011;59977;48.782;9.190;2024-01-06T01:31:51;10.15;;;2.03;;
24631;SDS011;59977;48.782;9.190;2024-01-06T01:34:17;11.40;;;2.17;;
24631;SDS011;59977;48.782;9.190;2024-01-06T01:36:42;6.78;;;2.10;;
24631;SDS011;59977;48.782;9.190;2024-01-06T01:39:08;5.30;;;2.05;;
24631;SDS011;59977;48.782;9.190;2024-01-06T01:41:33;8.32;;;2.10;;
24631;SDS011;59977;48.782;9.190;2024-01-06T01:43:59;8.60;;;1.80;;
24631;SDS011;59977;48.782;9.190;2024-01-06T01:46:28;9.60;;;2.17;;
24631;SDS011;59977;48.782;9.190;2024-01-06T01:48:55;7.97;;;2.08;;
24631;SDS011;59977;48.782;9.190;2024-01-06T01:51:22;4.40;;;1.70;;
24631;SDS011;59977;48.782;9.190;2024-01-06T01:53:52;7.72;;;1.98;;
24631;SDS011;59977;48.782;9.190;2024-01-06T01:56:18;6.70;;;1.90;;
24631;SDS011;59977;48.782;9.190;2024-01-06T01:58:45;5.85;;;1.80;;
24631;SDS011;59977;48.782;9.190;2024-01-06T02:01:12;5.60;;;1.75;;
24631;SDS011;59977;48.782;9.190;2024-01-06T02:03:39;5.50;;;1.50;;
24631;SDS011;59977;48.782;9.190;2024-01-06T02:06:08;10.63;;;1.77;;
24631;SDS011;59977;48.782;9.190;2024-01-06T02:08:35;7.20;;;1.63;;
24631;SDS011;59977;48.782;9.190;2024-01-06T02:11:01;7.72;;;1.60;;
24631;SDS011;59977;48.782;9.190;2024-01-06T02:13:34;11.70;;;2.05;;
24631;SDS011;59977;48.782;9.190;2024-01-06T02:16:04;5.57;;;1.73;;
24631;SDS011;59977;48.782;9.190;2024-01-06T02:18:31;7.20;;;1.77;;
24631;SDS011;59977;48.782;9.190;2024-01-06T02:20:58;5.90;;;1.80;;
24631;SDS011;59977;48.782;9.190;2024-01-06T02:23:25;14.88;;;1.90;;
24631;SDS011;59977;48.782;9.190;2024-01-06T02:25:59;9.82;;;1.92;;
24631;SDS011;59977;48.782;9.190;2024-01-06T02:28:24;7.85;;;2.30;;
24631;SDS011;59977;48.782;9.190;2024-01-06T02:30:50;8.18;;;1.55;;
24631;SDS011;59977;48.782;9.190;2024-01-06T02:33:15;8.02;;;2.03;;
24631;SDS011;59977;48.782;9.190;2024-01-06T02:35:43;5.88;;;1.77;;
24631;SDS011;59977;48.782;9.190;2024-01-06T02:38:09;7.85;;;1.50;;
24631;SDS011;59977;48.782;9.190;2024-01-06T02:40:36;7.90;;;1.90;;
24631;SDS011;59977;48.782;9.190;2024-01-06T02:43:01;6.07;;;1.35;;
24631;SDS011;59977;48.782;9.190;2024-01-06T02:45:27;11.02;;;1.98;;
24631;SDS011;59977;48.782;9.190;2024-01-06T02:47:52;6.00;;;1.70;;
24631;SDS011;59977;48.782;9.190;2024-01-06T02:50:18;10.00;;;1.70;;
24631;SDS011;59977;48.782;9.190;2024-01-06T02:52:44;9.25;;;2.00;;
24631;SDS011;59977;48.782;9.190;2024-01-06T02:55:12;6.28;;;1.67;;
24631;SDS011;59977;48.782;9.190;2024-01-06T02:57:46;8.68;;;1.88;;
24631;SDS011;59977;48.782;9.190;2024-01-06T03:00:18;3.35;;;1.15;;
24631;SDS011;59977;48.782;9.190;2024-01-06T03:02:44;9.23;;;1.73;;
24631;SDS011;59977;48.782;9.190;2024-01-06T03:05:09;8.27;;;1.67;;
24631;SDS011;59977;48.782;9.190;2024-01-06T03:07:35;6.72;;;1.88;;
24631;SDS011;59977;48.782;9.190;2024-01-06T03:10:01;6.25;;;1.88;;
24631;SDS011;59977;48.782;9.190;2024-01-06T03:12:28;7.40;;;1.40;;
24631;SDS011;59977;48.782;9.190;2024-01-06T03:14:54;7.32;;;1.70;;
24631;SDS011;59977;48.782;9.190;2024-01-06T03:17:19;5.95;;;1.63;;
24631;SDS011;59977;48.782;9.190;2024-01-06T03:19:45;12.38;;;2.10;;
24631;SDS011;59977;48.782;9.190;2024-01-06T03:22:10;4.45;;;1.48;;
24631;SDS011;59977;48.782;9.190;2024-01-06T03:24:36;5.20;;;1.65;;
24631;SDS011;59977;48.782;9.190;2024-01-06T03:27:05;8.32;;;1.88;;
24631;SDS011;59977;48.782;9.190;2024-01-06T03:29:31;11.70;;;1.58;;
24631;SDS011;59977;48.782;9.190;2024-01-06T03:31:57;8.48;;;2.17;;
24631;SDS011;59977;48.782;9.190;2024-01-06T03:34:22;9.43;;;1.77;;
24631;SDS011;59977;48.782;9.190;2024-01-06T03:36:48;8.23;;;2.15;;
24631;SDS011;59977;48.782;9.190;2024-01-06T03:39:13;8.05;;;1.60;;
24631;SDS011;59977;48.782;9.190;2024-01-06T03:41:39;9.60;;;1.90;;
24631;SDS011;59977;48.782;9.190;2024-01-06T03:44:05;5.97;;;1.90;;
24631;SDS011;59977;48.782;9.190;2024-01-06T03:46:31;7.30;;;1.80;;
24631;SDS011;59977;48.782;9.190;2024-01-06T03:48:57;9.77;;;1.80;;
24631;SDS011;59977;48.782;9.190;2024-01-06T03:51:22;17.17;;;2.38;;
24631;SDS011;59977;48.782;9.190;2024-01-06T03:53:48;5.97;;;1.67;;
24631;SDS011;59977;48.782;9.190;2024-01-06T03:56:14;6.82;;;1.70;;
24631;SDS011;59977;48.782;9.190;2024-01-06T03:58:39;6.03;;;1.60;;
24631;SDS011;59977;48.782;9.190;2024-01-06T04:01:05;11.18;;;2.08;;
24631;SDS011;59977;48.782;9.190;2024-01-06T04:03:30;8.75;;;1.80;;
24631;SDS011;59977;48.782;9.190;2024-01-06T04:05:56;8.63;;;1.40;;
24631;SDS011;59977;48.782;9.190;2024-01-06T04:08:21;6.30;;;1.70;;
24631;SDS011;59977;48.782;9.190;2024-01-06T04:10:47;8.52;;;1.75;;
24631;SDS011;59977;48.782;9.190;2024-01-06T04:13:13;5.28;;;1.70;;
24631;SDS011;59977;48.782;9.190;2024-01-06T04:15:40;8.02;;;2.05;;
24631;SDS011;59977;48.782;9.190;2024-01-06T04:18:05;9.93;;;2.00;;
24631;SDS011;59977;48.782;9.190;2024-01-06T04:20:32;12.50;;;2.22;;
24631;SDS011;59977;48.782;9.190;2024-01-06T04:22:58;6.57;;;1.60;;
24631;SDS011;59977;48.782;9.190;2024-01-06T04:25:24;5.95;;;1.70;;
24631;SDS011;59977;48.782;9.190;2024-01-06T04:27:49;5.57;;;1.23;;
24631;SDS011;59977;48.782;9.190;2024-01-06T04:30:16;6.25;;;1.90;;
24631;SDS011;59977;48.782;9.190;2024-01-06T04:32:42;8.25;;;1.60;;
24631;SDS011;59977;48.782;9.190;2024-01-06T04:35:08;6.90;;;1.55;;
24631;SDS011;59977;48.782;9.190;2024-01-06T04:37:35;7.65;;;1.63;;
24631;SDS011;59977;48.782;9.190;2024-01-06T04:40:00;5.93;;;1.63;;
24631;SDS011;59977;48.782;9.190;2024-01-06T04:42:26;10.57;;;1.45;;
24631;SDS011;59977;48.782;9.190;2024-01-06T04:44:52;7.50;;;1.50;;
24631;SDS011;59977;48.782;9.190;2024-01-06T04:47:17;7.18;;;1.58;;
24631;SDS011;59977;48.782;9.190;2024-01-06T04:49:43;5.90;;;1.35;;
24631;SDS011;59977;48.782;9.190;2024-01-06T04:52:09;5.07;;;1.55;;
24631;SDS011;59977;48.782;9.190;2024-01-06T04:54:36;9.25;;;1.73;;
24631;SDS011;59977;48.782;9.190;2024-01-06T04:57:03;10.43;;;1.52;;
24631;SDS011;59977;48.782;9.190;2024-01-06T04:59:29;9.63;;;1.52;;
24631;SDS011;59977;48.782;9.190;2024-01-06T05:01:55;5.28;;;1.45;;
24631;SDS011;59977;48.782;9.190;2024-01-06T05:04:25;6.47;;;1.65;;
24631;SDS011;59977;48.782;9.190;2024-01-06T05:06:51;5.45;;;1.40;;
24631;SDS011;59977;48.782;9.190;2024-01-06T05:09:16;9.27;;;1.52;;
24631;SDS011;59977;48.782;9.190;2024-01-06T05:11:43;8.95;;;1.77;;
24631;SDS011;59977;48.782;9.190;2024-01-06T05:14:09;6.35;;;1.73;;
24631;SDS011;59977;48.782;9.190;2024-01-06T05:16:35;4.80;;;1.50;;
24631;SDS011;59977;48.782;9.190;2024-01-06T05:19:01;8.48;;;1.60;;
24631;SDS011;59977;48.782;9.190;2024-01-06T05:21:27;6.85;;;1.85;;
24631;SDS011;59977;48.782;9.190;2024-01-06T05:23:53;10.57;;;1.58;;
24631;SDS011;59977;48.782;9.190;2024-01-06T05:26:18;19.92;;;1.65;;
24631;SDS011;59977;48.782;9.190;2024-01-06T05:28:44;5.32;;;1.58;;
24631;SDS011;59977;48.782;9.190;2024-01-06T05:31:09;4.18;;;1.50;;
24631;SDS011;59977;48.782;9.190;2024-01-06T05:33:35;7.05;;;1.60;;
24631;SDS011;59977;48.782;9.190;2024-01-06T05:36:01;10.32;;;2.00;;
24631;SDS011;59977;48.782;9.190;2024-01-06T05:38:27;9.98;;;2.20;;
24631;SDS011;59977;48.782;9.190;2024-01-06T05:40:52;3.55;;;1.55;;
24631;SDS011;59977;48.782;9.190;2024-01-06T05:43:20;5.18;;;1.33;;
24631;SDS011;59977;48.782;9.190;2024-01-06T05:45:53;9.32;;;1.60;;
24631;SDS011;59977;48.782;9.190;2024-01-06T05:48:19;4.70;;;1.35;;
24631;SDS011;59977;48.782;9.190;2024-01-06T05:50:45;5.65;;;1.42;;
24631;SDS011;59977;48.782;9.190;2024-01-06T05:53:11;4.07;;;1.33;;
24631;SDS011;59977;48.782;9.190;2024-01-06T05:55:39;5.85;;;1.45;;
24631;SDS011;59977;48.782;9.190;2024-01-06T05:58:05;10.35;;;1.60;;
24631;SDS011;59977;48.782;9.190;2024-01-06T06:00:30;9.93;;;1.80;;
24631;SDS011;59977;48.782;9.190;2024-01-06T06:03:01;3.83;;;1.45;;
24631;SDS011;59977;48.782;9.190;2024-01-06T06:05:27;4.78;;;1.10;;
24631;SDS011;59977;48.782;9.190;2024-01-06T06:07:53;9.55;;;1.83;;
24631;SDS011;59977;48.782;9.190;2024-01-06T06:10:19;7.28;;;1.40;;
24631;SDS011;59977;48.782;9.190;2024-01-06T06:12:45;6.18;;;1.55;;
24631;SDS011;59977;48.782;9.190;2024-01-06T06:15:11;6.82;;;1.70;;
24631;SDS011;59977;48.782;9.190;2024-01-06T06:17:36;4.22;;;1.55;;
24631;SDS011;59977;48.782;9.190;2024-01-06T06:20:07;6.47;;;1.58;;
24631;SDS011;59977;48.782;9.190;2024-01-06T06:22:36;5.30;;;1.52;;
24631;SDS011;59977;48.782;9.190;2024-01-06T06:25:02;5.82;;;1.55;;
24631;SDS011;59977;48.782;9.190;2024-01-06T06:27:28;4.45;;;1.63;;
24631;SDS011;59977;48.782;9.190;2024-01-06T06:29:54;8.48;;;1.70;;
24631;SDS011;59977;48.782;9.190;2024-01-06T06:32:23;6.05;;;1.67;;
24631;SDS011;59977;48.782;9.190;2024-01-06T06:34:50;4.38;;;1.33;;
24631;SDS011;59977;48.782;9.190;2024-01-06T06:37:16;7.82;;;1.52;;
24631;SDS011;59977;48.782;9.190;2024-01-06T06:39:42;7.97;;;2.00;;
24631;SDS011;59977;48.782;9.190;2024-01-06T06:42:09;5.07;;;1.30;;
24631;SDS011;59977;48.782;9.190;2024-01-06T06:44:35;7.18;;;1.50;;
24631;SDS011;59977;48.782;9.190;2024-01-06T06:47:01;6.07;;;1.80;;
24631;SDS011;59977;48.782;9.190;2024-01-06T06:49:27;5.00;;;1.60;;
24631;SDS011;59977;48.782;9.190;2024-01-06T06:51:53;5.20;;;1.50;;
24631;SDS011;59977;48.782;9.190;2024-01-06T06:54:20;7.25;;;1.70;;
24631;SDS011;59977;48.782;9.190;2024-01-06T06:56:46;4.63;;;1.35;;
24631;SDS011;59977;48.782;9.190;2024-01-06T06:59:15;6.57;;;1.38;;
24631;SDS011;59977;48.782;9.190;2024-01-06T07:01:40;5.15;;;1.40;;
24631;SDS011;59977;48.782;9.190;2024-01-06T07:04:06;4.07;;;1.75;;
24631;SDS011;59977;48.782;9.190;2024-01-06T07:06:33;8.35;;;1.75;;
24631;SDS011;59977;48.782;9.190;2024-01-06T07:09:07;5.78;;;1.63;;
24631;SDS011;59977;48.782;9.190;2024-01-06T07:11:33;6.55;;;1.67;;
24631;SDS011;59977;48.782;9.190;2024-01-06T07:13:58;6.10;;;1.45;;
24631;SDS011;59977;48.782;9.190;2024-01-06T07:16:24;6.10;;;1.80;;
24631;SDS011;59977;48.782;9.190;2024-01-06T07:18:56;7.15;;;1.63;;
24631;SDS011;59977;48.782;9.190;2024-01-06T07:21:24;5.95;;;1.65;;
24631;SDS011;59977;48.782;9.190;2024-01-06T07:23:51;4.40;;;1.50;;
24631;SDS011;59977;48.782;9.190;2024-01-06T07:26:16;6.03;;;1.50;;
24631;SDS011;59977;48.782;9.190;2024-01-06T07:28:42;7.28;;;2.00;;
24631;SDS011;59977;48.782;9.190;2024-01-06T07:31:08;6.30;;;1.50;;
24631;SDS011;59977;48.782;9.190;2024-01-06T07:33:36;5.75;;;1.23;;
24631;SDS011;59977;48.782;9.190;2024-01-06T07:36:06;7.70;;;1.45;;
24631;SDS011;59977;48.782;9.190;2024-01-06T07:38:42;6.07;;;1.50;;
24631;SDS011;59977;48.782;9.190;2024-01-06T07:41:16;4.15;;;1.30;;
24631;SDS011;59977;48.782;9.190;2024-01-06T07:43:42;7.50;;;1.95;;
24631;SDS011;59977;48.782;9.190;2024-01-06T07:46:08;11.40;;;1.85;;
24631;SDS011;59977;48.782;9.190;2024-01-06T07:48:34;5.32;;;1.60;;
24631;SDS011;59977;48.782;9.190;2024-01-06T07:51:01;5.72;;;1.83;;
24631;SDS011;59977;48.782;9.190;2024-01-06T07:53:26;7.00;;;1.77;;
24631;SDS011;59977;48.782;9.190;2024-01-06T07:55:52;9.05;;;1.70;;
24631;SDS011;59977;48.782;9.190;2024-01-06T07:58:18;7.15;;;1.65;;
24631;SDS011;59977;48.782;9.190;2024-01-06T08:18:57;7.65;;;1.70;;
24631;SDS011;59977;48.782;9.190;2024-01-06T08:21:27;5.03;;;1.35;;
24631;SDS011;59977;48.782;9.190;2024-01-06T14:34:51;7.32;;;3.95;;
24631;SDS011;59977;48.782;9.190;2024-01-06T14:37:42;5.57;;;3.70;;
24631;SDS011;59977;48.782;9.190;2024-01-06T22:29:13;30.02;;;18.45;;
24631;SDS011;59977;48.782;9.190;2024-01-06T22:31:42;26.27;;;17.27;;
24631;SDS011;59977;48.782;9.190;2024-01-06T22:34:08;28.08;;;18.50;;
24631;SDS011;59977;48.782;9.190;2024-01-06T22:36:35;27.83;;;17.20;;
24631;SDS011;59977;48.782;9.190;2024-01-06T22:39:01;30.27;;;19.35;;
24631;SDS011;59977;48.782;9.190;2024-01-06T22:41:30;31.35;;;18.73;;
24631;SDS011;59977;48.782;9.190;2024-01-06T22:43:55;30.48;;;19.23;;
24631;SDS011;59977;48.782;9.190;2024-01-06T22:46:22;31.60;;;20.67;;
24631;SDS011;59977;48.782;9.190;2024-01-06T22:48:51;31.83;;;19.83;;
24631;SDS011;59977;48.782;9.190;2024-01-06T22:51:17;31.60;;;19.90;;
24631;SDS011;59977;48.782;9.190;2024-01-06T22:53:43;47.63;;;26.92;;
24631;SDS011;59977;48.782;9.190;2024-01-06T22:56:09;36.08;;;21.15;;
24631;SDS011;59977;48.782;9.190;2024-01-06T22:58:34;35.75;;;20.40;;
24631;SDS011;59977;48.782;9.190;2024-01-06T23:01:01;33.55;;;21.05;;
24631;SDS011;59977;48.782;9.190;2024-01-06T23:03:27;33.45;;;20.70;;
24631;SDS011;59977;48.782;9.190;2024-01-06T23:06:25;29.98;;;19.38;;
24631;SDS011;59977;48.782;9.190;2024-01-06T23:11:22;30.35;;;19.58;;
24631;SDS011;59977;48.782;9.190;2024-01-06T23:13:48;35.08;;;20.50;;
24631;SDS011;59977;48.782;9.190;2024-01-06T23:16:16;28.45;;;20.20;;
24631;SDS011;59977;48.782;9.190;2024-01-06T23:18:42;35.95;;;22.75;;
24631;SDS011;59977;48.782;9.190;2024-01-06T23:21:07;31.52;;;20.23;;
24631;SDS011;59977;48.782;9.190;2024-01-06T23:23:33;30.55;;;20.30;;
24631;SDS011;59977;48.782;9.190;2024-01-06T23:26:03;29.48;;;18.80;;
24631;SDS011;59977;48.782;9.190;2024-01-06T23:28:28;29.33;;;19.48;;
24631;SDS011;59977;48.782;9.190;2024-01-06T23:30:54;28.63;;;18.90;;
24631;SDS011;59977;48.782;9.190;2024-01-06T23:33:25;34.72;;;20.63;;
24631;SDS011;59977;48.782;9.190;2024-01-06T23:35:51;33.13;;;19.77;;
24631;SDS011;59977;48.782;9.190;2024-01-06T23:38:17;32.22;;;20.00;;
24631;SDS011;59977;48.782;9.190;2024-01-06T23:40:43;28.67;;;18.70;;
24631;SDS011;59977;48.782;9.190;2024-01-06T23:43:10;29.48;;;19.08;;
24631;SDS011;59977;48.782;9.190;2024-01-06T23:45:38;29.58;;;18.05;;
24631;SDS011;59977;48.782;9.190;2024-01-06T23:48:03;27.20;;;19.27;;
24631;SDS011;59977;48.782;9.190;2024-01-06T23:50:29;29.50;;;19.50;;
24631;SDS011;59977;48.782;9.190;2024-01-06T23:52:55;31.10;;;19.80;;
24631;SDS011;59977;48.782;9.190;2024-01-06T23:55:23;30.88;;;19.95;;
24631;SDS011;59977;48.782;9.190;2024-01-06T23:57:54;28.55;;;18.50;;
